sensor_id;sensor_type;location;lat;lon;timestamp;P1;P2;P0
69746;PMS7003;57018;50.278;19.134;2023-01-24T00:01:47;56.00;45.50;25.50
69746;PMS7003;57018;50.278;19.134;2023-01-24T00:04:17;65.50;54.00;29.50
69746;PMS7003;57018;50.278;19.134;2023-01-24T00:06:46;60.50;47.00;29.00
69746;PMS7003;57018;50.278;19.134;2023-01-24T00:09:16;56.00;45.00;29.00
69746;PMS7003;57018;50.278;19.134;2023-01-24T00:11:46;54.50;45.00;29.00
69746;PMS7003;57018;50.278;19.134;2023-01-24T00:14:16;51.50;43.50;27.50
69746;PMS7003;57018;50.278;19.134;2023-01-24T00:16:45;42.00;35.00;23.00
69746;PMS7003;57018;50.278;19.134;2023-01-24T00:19:15;53.00;44.00;26.00
69746;PMS7003;57018;50.278;19.134;2023-01-24T00:21:45;66.00;52.00;30.00
69746;PMS7003;57018;50.278;19.134;2023-01-24T00:24:15;63.00;49.00;30.00
69746;PMS7003;57018;50.278;19.134;2023-01-24T00:26:45;59.50;47.00;29.00
69746;PMS7003;57018;50.278;19.134;2023-01-24T00:29:15;63.00;50.00;31.00
69746;PMS7003;57018;50.278;19.134;2023-01-24T00:31:44;66.00;52.00;33.00
69746;PMS7003;57018;50.278;19.134;2023-01-24T00:34:14;59.00;47.00;27.50
69746;PMS7003;57018;50.278;19.134;2023-01-24T00:36:44;59.33;46.67;30.00
69746;PMS7003;57018;50.278;19.134;2023-01-24T00:39:14;59.00;50.00;31.00
69746;PMS7003;57018;50.278;19.134;2023-01-24T00:41:44;57.00;42.00;25.00
69746;PMS7003;57018;50.278;19.134;2023-01-24T00:44:14;50.00;44.00;26.00
69746;PMS7003;57018;50.278;19.134;2023-01-24T00:46:44;63.00;47.00;31.00
69746;PMS7003;57018;50.278;19.134;2023-01-24T00:49:13;58.50;47.50;29.50
69746;PMS7003;57018;50.278;19.134;2023-01-24T00:51:43;53.00;47.50;29.50
69746;PMS7003;57018;50.278;19.134;2023-01-24T00:54:13;62.00;45.00;30.00
69746;PMS7003;57018;50.278;19.134;2023-01-24T00:56:43;63.00;48.00;30.00
69746;PMS7003;57018;50.278;19.134;2023-01-24T00:59:13;61.00;47.50;31.50
69746;PMS7003;57018;50.278;19.134;2023-01-24T01:04:10;63.00;50.00;29.00
69746;PMS7003;57018;50.278;19.134;2023-01-24T01:06:40;55.00;43.00;27.00
69746;PMS7003;57018;50.278;19.134;2023-01-24T01:11:39;57.00;48.50;29.00
69746;PMS7003;57018;50.278;19.134;2023-01-24T01:14:09;54.67;43.67;28.00
69746;PMS7003;57018;50.278;19.134;2023-01-24T01:16:39;63.00;51.00;32.00
69746;PMS7003;57018;50.278;19.134;2023-01-24T01:19:09;55.50;45.50;28.50
69746;PMS7003;57018;50.278;19.134;2023-01-24T01:21:39;61.00;46.00;30.00
69746;PMS7003;57018;50.278;19.134;2023-01-24T01:24:11;62.50;45.50;27.00
69746;PMS7003;57018;50.278;19.134;2023-01-24T01:26:41;64.00;48.50;30.00
69746;PMS7003;57018;50.278;19.134;2023-01-24T01:29:10;47.00;42.00;26.00
69746;PMS7003;57018;50.278;19.134;2023-01-24T01:31:40;53.00;46.00;26.00
69746;PMS7003;57018;50.278;19.134;2023-01-24T01:34:10;56.00;46.00;29.00
69746;PMS7003;57018;50.278;19.134;2023-01-24T01:36:40;63.50;45.50;30.00
69746;PMS7003;57018;50.278;19.134;2023-01-24T01:39:10;56.00;43.00;26.00
69746;PMS7003;57018;50.278;19.134;2023-01-24T01:41:40;54.00;43.00;25.00
69746;PMS7003;57018;50.278;19.134;2023-01-24T01:44:19;53.00;43.00;26.00
69746;PMS7003;57018;50.278;19.134;2023-01-24T01:47:11;57.00;44.00;27.50
69746;PMS7003;57018;50.278;19.134;2023-01-24T01:49:48;51.00;43.00;27.00
69746;PMS7003;57018;50.278;19.134;2023-01-24T01:52:22;51.00;41.00;26.00
69746;PMS7003;57018;50.278;19.134;2023-01-24T01:54:56;58.67;43.33;23.33
69746;PMS7003;57018;50.278;19.134;2023-01-24T01:57:30;10.00;6.00;0.00
69746;PMS7003;57018;50.278;19.134;2023-01-24T02:00:05;53.00;43.00;27.50
69746;PMS7003;57018;50.278;19.134;2023-01-24T02:02:39;47.00;40.00;26.00
69746;PMS7003;57018;50.278;19.134;2023-01-24T02:05:13;50.67;41.67;25.67
69746;PMS7003;57018;50.278;19.134;2023-01-24T02:07:46;42.50;38.50;25.00
69746;PMS7003;57018;50.278;19.134;2023-01-24T02:10:21;52.00;40.00;23.00
69746;PMS7003;57018;50.278;19.134;2023-01-24T02:13:12;50.00;38.00;23.00
69746;PMS7003;57018;50.278;19.134;2023-01-24T02:15:43;46.00;39.33;23.33
69746;PMS7003;57018;50.278;19.134;2023-01-24T02:18:30;55.00;40.00;22.00
69746;PMS7003;57018;50.278;19.134;2023-01-24T02:21:01;46.00;40.50;25.50
69746;PMS7003;57018;50.278;19.134;2023-01-24T02:23:39;42.00;35.00;22.00
69746;PMS7003;57018;50.278;19.134;2023-01-24T02:26:15;41.00;37.00;27.00
69746;PMS7003;57018;50.278;19.134;2023-01-24T02:28:49;51.00;42.00;25.00
69746;PMS7003;57018;50.278;19.134;2023-01-24T02:31:23;39.00;30.00;19.00
69746;PMS7003;57018;50.278;19.134;2023-01-24T02:33:53;40.00;35.00;18.00
69746;PMS7003;57018;50.278;19.134;2023-01-24T02:36:23;47.00;36.00;24.50
69746;PMS7003;57018;50.278;19.134;2023-01-24T02:38:58;40.00;36.50;25.00
69746;PMS7003;57018;50.278;19.134;2023-01-24T02:41:32;47.33;40.67;24.67
69746;PMS7003;57018;50.278;19.134;2023-01-24T02:44:09;47.33;42.00;25.33
69746;PMS7003;57018;50.278;19.134;2023-01-24T02:46:43;40.00;32.00;20.00
69746;PMS7003;57018;50.278;19.134;2023-01-24T02:49:13;36.00;33.00;23.00
69746;PMS7003;57018;50.278;19.134;2023-01-24T02:51:43;49.00;40.00;26.00
69746;PMS7003;57018;50.278;19.134;2023-01-24T02:54:31;39.00;35.00;25.00
69746;PMS7003;57018;50.278;19.134;2023-01-24T02:57:01;59.00;44.00;28.00
69746;PMS7003;57018;50.278;19.134;2023-01-24T02:59:48;45.50;39.00;25.00
69746;PMS7003;57018;50.278;19.134;2023-01-24T03:02:18;50.00;41.00;26.00
69746;PMS7003;57018;50.278;19.134;2023-01-24T03:04:47;57.00;42.33;26.00
69746;PMS7003;57018;50.278;19.134;2023-01-24T03:07:17;48.00;40.00;27.00
69746;PMS7003;57018;50.278;19.134;2023-01-24T03:12:15;49.00;40.50;22.50
69746;PMS7003;57018;50.278;19.134;2023-01-24T03:15:03;46.50;40.00;23.50
69746;PMS7003;57018;50.278;19.134;2023-01-24T03:17:51;46.00;41.00;26.00
69746;PMS7003;57018;50.278;19.134;2023-01-24T03:20:45;47.50;39.50;24.50
69746;PMS7003;57018;50.278;19.134;2023-01-24T03:23:33;47.00;41.50;25.00
69746;PMS7003;57018;50.278;19.134;2023-01-24T03:26:21;30.00;22.00;10.00
69746;PMS7003;57018;50.278;19.134;2023-01-24T03:29:09;40.50;31.00;19.00
69746;PMS7003;57018;50.278;19.134;2023-01-24T03:31:56;47.00;41.00;22.00
69746;PMS7003;57018;50.278;19.134;2023-01-24T03:34:44;52.50;40.00;21.50
69746;PMS7003;57018;50.278;19.134;2023-01-24T03:37:16;49.67;42.67;22.67
69746;PMS7003;57018;50.278;19.134;2023-01-24T03:40:11;35.00;29.50;17.00
69746;PMS7003;57018;50.278;19.134;2023-01-24T03:42:42;41.00;37.00;22.00
69746;PMS7003;57018;50.278;19.134;2023-01-24T03:45:15;44.00;32.50;19.00
69746;PMS7003;57018;50.278;19.134;2023-01-24T03:47:47;35.00;33.00;21.00
69746;PMS7003;57018;50.278;19.134;2023-01-24T03:50:32;45.00;37.00;22.00
69746;PMS7003;57018;50.278;19.134;2023-01-24T03:53:21;38.50;32.50;19.00
69746;PMS7003;57018;50.278;19.134;2023-01-24T03:55:52;37.00;34.00;19.00
69746;PMS7003;57018;50.278;19.134;2023-01-24T03:58:24;42.00;39.00;23.00
69746;PMS7003;57018;50.278;19.134;2023-01-24T04:00:55;41.00;38.00;25.00
69746;PMS7003;57018;50.278;19.134;2023-01-24T04:03:25;39.50;37.00;25.00
69746;PMS7003;57018;50.278;19.134;2023-01-24T04:05:55;45.00;39.00;25.00
69746;PMS7003;57018;50.278;19.134;2023-01-24T04:08:26;39.00;33.00;21.00
69746;PMS7003;57018;50.278;19.134;2023-01-24T04:10:56;32.50;31.00;18.50
69746;PMS7003;57018;50.278;19.134;2023-01-24T04:13:26;39.00;36.00;25.00
69746;PMS7003;57018;50.278;19.134;2023-01-24T04:15:55;30.00;30.00;20.00
69746;PMS7003;57018;50.278;19.134;2023-01-24T04:18:25;27.00;26.50;14.50
69746;PMS7003;57018;50.278;19.134;2023-01-24T04:20:55;45.00;35.00;22.00
69746;PMS7003;57018;50.278;19.134;2023-01-24T04:23:28;33.00;29.00;17.00
69746;PMS7003;57018;50.278;19.134;2023-01-24T04:25:58;37.00;30.00;18.00
69746;PMS7003;57018;50.278;19.134;2023-01-24T04:28:29;35.00;31.00;20.00
69746;PMS7003;57018;50.278;19.134;2023-01-24T04:31:00;29.00;28.00;17.00
69746;PMS7003;57018;50.278;19.134;2023-01-24T04:33:31;29.00;27.00;15.00
69746;PMS7003;57018;50.278;19.134;2023-01-24T04:36:01;39.00;32.00;16.00
69746;PMS7003;57018;50.278;19.134;2023-01-24T04:38:31;36.50;32.50;20.50
69746;PMS7003;57018;50.278;19.134;2023-01-24T04:41:01;40.00;36.00;21.00
69746;PMS7003;57018;50.278;19.134;2023-01-24T04:43:31;35.00;32.00;19.50
69746;PMS7003;57018;50.278;19.134;2023-01-24T04:46:01;38.00;27.00;19.00
69746;PMS7003;57018;50.278;19.134;2023-01-24T04:48:31;30.00;29.00;17.00
69746;PMS7003;57018;50.278;19.134;2023-01-24T04:51:01;27.50;25.00;16.50
69746;PMS7003;57018;50.278;19.134;2023-01-24T04:53:31;22.00;19.00;11.00
69746;PMS7003;57018;50.278;19.134;2023-01-24T04:58:31;41.00;31.00;18.50
69746;PMS7003;57018;50.278;19.134;2023-01-24T05:01:01;32.00;26.00;20.00
69746;PMS7003;57018;50.278;19.134;2023-01-24T05:03:31;34.50;32.50;21.00
69746;PMS7003;57018;50.278;19.134;2023-01-24T05:06:01;36.00;32.00;20.00
69746;PMS7003;57018;50.278;19.134;2023-01-24T05:08:32;32.00;32.00;22.00
69746;PMS7003;57018;50.278;19.134;2023-01-24T05:11:02;26.00;23.50;14.50
69746;PMS7003;57018;50.278;19.134;2023-01-24T05:13:32;35.00;31.00;17.00
69746;PMS7003;57018;50.278;19.134;2023-01-24T05:16:03;29.00;29.00;19.50
69746;PMS7003;57018;50.278;19.134;2023-01-24T05:18:33;32.00;22.00;17.00
69746;PMS7003;57018;50.278;19.134;2023-01-24T05:21:07;24.00;21.50;13.50
69746;PMS7003;57018;50.278;19.134;2023-01-24T05:23:39;30.00;25.50;17.50
69746;PMS7003;57018;50.278;19.134;2023-01-24T05:26:09;38.00;30.00;17.00
69746;PMS7003;57018;50.278;19.134;2023-01-24T05:28:39;35.67;28.33;15.33
69746;PMS7003;57018;50.278;19.134;2023-01-24T05:31:08;33.00;28.00;18.00
69746;PMS7003;57018;50.278;19.134;2023-01-24T05:33:38;29.50;26.50;17.50
69746;PMS7003;57018;50.278;19.134;2023-01-24T05:36:09;33.50;31.00;18.00
69746;PMS7003;57018;50.278;19.134;2023-01-24T05:38:41;30.50;29.00;18.00
69746;PMS7003;57018;50.278;19.134;2023-01-24T05:41:11;29.00;27.00;17.00
69746;PMS7003;57018;50.278;19.134;2023-01-24T05:43:44;27.00;25.50;14.50
69746;PMS7003;57018;50.278;19.134;2023-01-24T05:46:15;27.00;22.50;14.00
69746;PMS7003;57018;50.278;19.134;2023-01-24T05:48:46;35.50;28.50;16.50
69746;PMS7003;57018;50.278;19.134;2023-01-24T05:51:17;31.00;29.50;19.00
69746;PMS7003;57018;50.278;19.134;2023-01-24T05:53:47;34.00;31.00;17.00
69746;PMS7003;57018;50.278;19.134;2023-01-24T05:56:18;25.00;22.00;13.50
69746;PMS7003;57018;50.278;19.134;2023-01-24T05:58:48;25.00;22.50;15.00
69746;PMS7003;57018;50.278;19.134;2023-01-24T06:01:19;27.00;23.00;15.00
69746;PMS7003;57018;50.278;19.134;2023-01-24T06:03:50;11.00;6.00;2.00
69746;PMS7003;57018;50.278;19.134;2023-01-24T06:06:21;33.00;29.00;17.00
69746;PMS7003;57018;50.278;19.134;2023-01-24T06:08:52;22.00;21.00;14.00
69746;PMS7003;57018;50.278;19.134;2023-01-24T06:11:22;26.00;25.00;17.00
69746;PMS7003;57018;50.278;19.134;2023-01-24T06:13:54;40.50;32.00;21.00
69746;PMS7003;57018;50.278;19.134;2023-01-24T06:16:24;29.00;26.00;12.50
69746;PMS7003;57018;50.278;19.134;2023-01-24T06:18:55;27.50;23.50;18.00
69746;PMS7003;57018;50.278;19.134;2023-01-24T06:21:28;19.33;19.00;13.33
69746;PMS7003;57018;50.278;19.134;2023-01-24T06:24:11;19.00;19.00;11.50
69746;PMS7003;57018;50.278;19.134;2023-01-24T06:26:46;24.00;23.00;13.50
69746;PMS7003;57018;50.278;19.134;2023-01-24T06:29:18;28.00;25.50;14.50
69746;PMS7003;57018;50.278;19.134;2023-01-24T06:31:52;22.00;20.00;14.00
69746;PMS7003;57018;50.278;19.134;2023-01-24T06:34:45;30.00;25.50;17.50
69746;PMS7003;57018;50.278;19.134;2023-01-24T06:37:35;26.00;20.50;14.00
69746;PMS7003;57018;50.278;19.134;2023-01-24T06:40:13;29.00;20.00;14.00
69746;PMS7003;57018;50.278;19.134;2023-01-24T06:42:45;31.00;26.00;15.00
69746;PMS7003;57018;50.278;19.134;2023-01-24T06:45:16;21.00;18.33;15.33
69746;PMS7003;57018;50.278;19.134;2023-01-24T06:47:46;26.00;22.00;14.00
69746;PMS7003;57018;50.278;19.134;2023-01-24T06:50:17;32.00;24.00;15.00
69746;PMS7003;57018;50.278;19.134;2023-01-24T06:52:49;22.00;18.00;13.00
69746;PMS7003;57018;50.278;19.134;2023-01-24T06:55:20;26.00;24.33;16.33
69746;PMS7003;57018;50.278;19.134;2023-01-24T06:57:54;27.00;19.00;11.00
69746;PMS7003;57018;50.278;19.134;2023-01-24T07:00:25;14.00;13.00;11.00
69746;PMS7003;57018;50.278;19.134;2023-01-24T07:02:59;25.00;22.00;13.00
69746;PMS7003;57018;50.278;19.134;2023-01-24T07:05:33;22.50;20.50;12.50
69746;PMS7003;57018;50.278;19.134;2023-01-24T07:08:05;19.50;16.00;11.50
69746;PMS7003;57018;50.278;19.134;2023-01-24T07:10:35;25.00;21.00;14.00
69746;PMS7003;57018;50.278;19.134;2023-01-24T07:13:05;21.00;18.00;12.50
69746;PMS7003;57018;50.278;19.134;2023-01-24T07:15:35;24.00;21.00;14.00
69746;PMS7003;57018;50.278;19.134;2023-01-24T07:18:06;22.00;18.00;10.00
69746;PMS7003;57018;50.278;19.134;2023-01-24T07:20:38;26.50;21.50;12.00
69746;PMS7003;57018;50.278;19.134;2023-01-24T07:23:14;17.00;14.50;10.00
69746;PMS7003;57018;50.278;19.134;2023-01-24T07:25:50;21.00;18.00;11.00
69746;PMS7003;57018;50.278;19.134;2023-01-24T07:28:21;25.00;19.00;13.00
69746;PMS7003;57018;50.278;19.134;2023-01-24T07:35:49;29.00;26.00;15.00
69746;PMS7003;57018;50.278;19.134;2023-01-24T07:38:19;27.00;23.00;16.00
69746;PMS7003;57018;50.278;19.134;2023-01-24T07:40:49;26.00;24.33;16.67
69746;PMS7003;57018;50.278;19.134;2023-01-24T07:43:18;30.00;26.00;16.00
69746;PMS7003;57018;50.278;19.134;2023-01-24T07:45:48;31.50;26.50;16.00
69746;PMS7003;57018;50.278;19.134;2023-01-24T07:48:18;36.50;32.50;19.50
69746;PMS7003;57018;50.278;19.134;2023-01-24T07:50:48;35.00;29.00;20.00
69746;PMS7003;57018;50.278;19.134;2023-01-24T07:53:18;31.00;26.00;19.00
69746;PMS7003;57018;50.278;19.134;2023-01-24T07:55:47;38.00;36.00;22.00
69746;PMS7003;57018;50.278;19.134;2023-01-24T07:58:17;32.00;30.00;22.00
69746;PMS7003;57018;50.278;19.134;2023-01-24T08:00:47;27.00;23.00;17.00
69746;PMS7003;57018;50.278;19.134;2023-01-24T08:03:17;38.50;35.00;24.50
69746;PMS7003;57018;50.278;19.134;2023-01-24T08:05:47;41.00;37.00;20.00
69746;PMS7003;57018;50.278;19.134;2023-01-24T08:08:17;41.00;34.00;24.00
69746;PMS7003;57018;50.278;19.134;2023-01-24T08:10:47;43.00;39.00;23.00
69746;PMS7003;57018;50.278;19.134;2023-01-24T08:13:16;37.50;28.00;17.50
69746;PMS7003;57018;50.278;19.134;2023-01-24T08:15:46;42.67;38.33;26.00
69746;PMS7003;57018;50.278;19.134;2023-01-24T08:18:16;42.00;35.00;20.00
69746;PMS7003;57018;50.278;19.134;2023-01-24T08:20:46;52.00;42.00;25.50
69746;PMS7003;57018;50.278;19.134;2023-01-24T08:23:16;47.00;38.00;24.00
69746;PMS7003;57018;50.278;19.134;2023-01-24T08:25:46;44.00;39.00;23.00
69746;PMS7003;57018;50.278;19.134;2023-01-24T08:28:16;45.00;38.33;23.67
69746;PMS7003;57018;50.278;19.134;2023-01-24T08:30:46;47.50;38.00;22.00
69746;PMS7003;57018;50.278;19.134;2023-01-24T08:33:16;24.00;18.00;6.50
69746;PMS7003;57018;50.278;19.134;2023-01-24T08:35:46;45.00;42.00;25.50
69746;PMS7003;57018;50.278;19.134;2023-01-24T08:38:16;43.00;39.33;25.33
69746;PMS7003;57018;50.278;19.134;2023-01-24T08:40:46;49.00;40.00;21.00
69746;PMS7003;57018;50.278;19.134;2023-01-24T08:43:16;38.50;38.00;22.50
69746;PMS7003;57018;50.278;19.134;2023-01-24T08:45:46;49.33;41.67;24.67
69746;PMS7003;57018;50.278;19.134;2023-01-24T08:48:16;41.50;38.50;23.50
69746;PMS7003;57018;50.278;19.134;2023-01-24T08:50:46;50.00;39.00;23.00
69746;PMS7003;57018;50.278;19.134;2023-01-24T08:53:16;53.50;42.00;26.00
69746;PMS7003;57018;50.278;19.134;2023-01-24T08:55:47;27.00;22.00;8.00
69746;PMS7003;57018;50.278;19.134;2023-01-24T08:58:18;50.33;40.33;24.00
69746;PMS7003;57018;50.278;19.134;2023-01-24T09:00:48;41.00;36.50;25.50
69746;PMS7003;57018;50.278;19.134;2023-01-24T09:03:18;48.00;37.00;20.00
69746;PMS7003;57018;50.278;19.134;2023-01-24T09:05:48;42.00;34.00;22.00
69746;PMS7003;57018;50.278;19.134;2023-01-24T09:08:23;57.50;42.50;25.50
69746;PMS7003;57018;50.278;19.134;2023-01-24T09:10:53;42.00;39.00;22.00
69746;PMS7003;57018;50.278;19.134;2023-01-24T09:13:25;47.00;38.50;23.50
69746;PMS7003;57018;50.278;19.134;2023-01-24T09:15:56;39.00;36.50;23.00
69746;PMS7003;57018;50.278;19.134;2023-01-24T09:18:26;49.00;39.50;24.00
69746;PMS7003;57018;50.278;19.134;2023-01-24T09:20:58;30.00;24.00;13.00
69746;PMS7003;57018;50.278;19.134;2023-01-24T09:23:30;46.00;39.67;26.00
69746;PMS7003;57018;50.278;19.134;2023-01-24T09:25:59;44.00;40.00;25.50
69746;PMS7003;57018;50.278;19.134;2023-01-24T09:28:29;41.00;34.00;22.00
69746;PMS7003;57018;50.278;19.134;2023-01-24T09:31:00;32.00;27.00;17.50
69746;PMS7003;57018;50.278;19.134;2023-01-24T09:33:31;30.00;25.50;15.50
69746;PMS7003;57018;50.278;19.134;2023-01-24T09:36:01;34.00;29.00;15.00
69746;PMS7003;57018;50.278;19.134;2023-01-24T09:38:32;37.00;35.33;21.67
69746;PMS7003;57018;50.278;19.134;2023-01-24T09:41:06;47.00;36.00;21.00
69746;PMS7003;57018;50.278;19.134;2023-01-24T09:43:48;34.00;32.00;18.00
69746;PMS7003;57018;50.278;19.134;2023-01-24T09:46:24;32.00;25.50;12.00
69746;PMS7003;57018;50.278;19.134;2023-01-24T09:51:31;33.33;27.67;15.67
69746;PMS7003;57018;50.278;19.134;2023-01-24T09:54:08;42.50;35.50;19.00
69746;PMS7003;57018;50.278;19.134;2023-01-24T09:56:49;35.00;31.00;19.00
69746;PMS7003;57018;50.278;19.134;2023-01-24T09:59:22;42.00;38.00;23.00
69746;PMS7003;57018;50.278;19.134;2023-01-24T10:01:58;40.00;31.50;18.50
69746;PMS7003;57018;50.278;19.134;2023-01-24T10:04:30;42.00;38.00;22.00
69746;PMS7003;57018;50.278;19.134;2023-01-24T10:07:10;41.00;37.50;23.50
69746;PMS7003;57018;50.278;19.134;2023-01-24T10:10:10;46.33;38.33;22.33
69746;PMS7003;57018;50.278;19.134;2023-01-24T10:12:56;34.00;27.00;16.00
69746;PMS7003;57018;50.278;19.134;2023-01-24T10:15:38;42.00;38.00;23.00
69746;PMS7003;57018;50.278;19.134;2023-01-24T10:18:21;41.00;35.33;19.33
69746;PMS7003;57018;50.278;19.134;2023-01-24T10:21:11;36.67;31.67;18.00
69746;PMS7003;57018;50.278;19.134;2023-01-24T10:24:03;36.00;32.00;19.00
69746;PMS7003;57018;50.278;19.134;2023-01-24T10:26:38;35.00;30.00;19.00
69746;PMS7003;57018;50.278;19.134;2023-01-24T10:29:16;40.00;36.00;20.00
69746;PMS7003;57018;50.278;19.134;2023-01-24T10:31:49;35.00;30.00;20.50
69746;PMS7003;57018;50.278;19.134;2023-01-24T10:34:27;30.00;22.00;18.00
69746;PMS7003;57018;50.278;19.134;2023-01-24T10:37:00;37.00;31.00;18.00
69746;PMS7003;57018;50.278;19.134;2023-01-24T10:39:33;47.00;35.00;21.00
69746;PMS7003;57018;50.278;19.134;2023-01-24T10:42:08;38.50;28.00;19.00
69746;PMS7003;57018;50.278;19.134;2023-01-24T10:44:44;39.50;32.00;19.50
69746;PMS7003;57018;50.278;19.134;2023-01-24T10:47:33;46.00;31.00;15.00
69746;PMS7003;57018;50.278;19.134;2023-01-24T10:50:11;37.00;32.00;19.00
69746;PMS7003;57018;50.278;19.134;2023-01-24T10:52:43;35.50;30.00;19.00
69746;PMS7003;57018;50.278;19.134;2023-01-24T10:55:26;39.00;31.00;20.00
69746;PMS7003;57018;50.278;19.134;2023-01-24T10:58:03;43.00;35.00;21.00
69746;PMS7003;57018;50.278;19.134;2023-01-24T11:00:46;44.00;39.00;23.00
69746;PMS7003;57018;50.278;19.134;2023-01-24T11:03:23;35.00;28.50;16.00
69746;PMS7003;57018;50.278;19.134;2023-01-24T11:05:56;40.00;31.50;20.00
69746;PMS7003;57018;50.278;19.134;2023-01-24T11:08:32;40.00;32.00;19.00
69746;PMS7003;57018;50.278;19.134;2023-01-24T11:11:04;34.00;33.00;18.00
69746;PMS7003;57018;50.278;19.134;2023-01-24T11:13:52;44.00;38.00;23.00
69746;PMS7003;57018;50.278;19.134;2023-01-24T11:16:26;38.50;25.00;19.00
69746;PMS7003;57018;50.278;19.134;2023-01-24T11:19:00;42.00;38.00;23.00
69746;PMS7003;57018;50.278;19.134;2023-01-24T11:21:31;35.00;33.50;19.50
69746;PMS7003;57018;50.278;19.134;2023-01-24T11:24:17;42.00;38.00;24.00
69746;PMS7003;57018;50.278;19.134;2023-01-24T11:26:53;38.00;34.00;23.00
69746;PMS7003;57018;50.278;19.134;2023-01-24T11:29:25;34.00;28.00;20.00
69746;PMS7003;57018;50.278;19.134;2023-01-24T11:31:55;43.50;33.50;20.00
69746;PMS7003;57018;50.278;19.134;2023-01-24T11:34:37;37.00;35.00;21.00
69746;PMS7003;57018;50.278;19.134;2023-01-24T11:37:17;32.00;31.00;16.00
69746;PMS7003;57018;50.278;19.134;2023-01-24T11:40:01;33.00;25.00;18.00
69746;PMS7003;57018;50.278;19.134;2023-01-24T11:42:43;34.00;29.00;16.00
69746;PMS7003;57018;50.278;19.134;2023-01-24T11:45:25;32.50;29.50;18.00
69746;PMS7003;57018;50.278;19.134;2023-01-24T11:48:11;27.50;27.00;19.00
69746;PMS7003;57018;50.278;19.134;2023-01-24T11:50:50;31.00;24.00;14.00
69746;PMS7003;57018;50.278;19.134;2023-01-24T11:56:38;18.67;18.67;12.00
69746;PMS7003;57018;50.278;19.134;2023-01-24T11:59:21;23.00;19.00;11.00
69746;PMS7003;57018;50.278;19.134;2023-01-24T12:02:03;25.00;25.00;18.00
69746;PMS7003;57018;50.278;19.134;2023-01-24T12:10:25;27.00;24.50;15.50
69746;PMS7003;57018;50.278;19.134;2023-01-24T12:13:05;30.00;25.50;18.00
69746;PMS7003;57018;50.278;19.134;2023-01-24T12:15:48;25.50;20.00;13.50
69746;PMS7003;57018;50.278;19.134;2023-01-24T12:18:41;19.50;19.50;12.00
69746;PMS7003;57018;50.278;19.134;2023-01-24T12:21:25;24.00;24.00;16.00
69746;PMS7003;57018;50.278;19.134;2023-01-24T12:23:55;19.00;19.00;11.00
69746;PMS7003;57018;50.278;19.134;2023-01-24T12:26:31;26.00;24.00;17.00
69746;PMS7003;57018;50.278;19.134;2023-01-24T12:29:08;25.33;23.00;14.67
69746;PMS7003;57018;50.278;19.134;2023-01-24T12:31:45;19.00;19.00;12.00
69746;PMS7003;57018;50.278;19.134;2023-01-24T12:34:27;22.00;19.50;12.50
69746;PMS7003;57018;50.278;19.134;2023-01-24T12:37:09;29.00;23.50;14.00
69746;PMS7003;57018;50.278;19.134;2023-01-24T12:39:43;23.50;20.00;14.50
69746;PMS7003;57018;50.278;19.134;2023-01-24T12:42:21;24.33;22.67;14.67
69746;PMS7003;57018;50.278;19.134;2023-01-24T12:45:04;28.50;21.50;11.00
69746;PMS7003;57018;50.278;19.134;2023-01-24T12:47:41;25.00;24.00;16.00
69746;PMS7003;57018;50.278;19.134;2023-01-24T12:50:18;23.50;22.00;14.00
69746;PMS7003;57018;50.278;19.134;2023-01-24T12:52:59;26.00;23.00;15.00
69746;PMS7003;57018;50.278;19.134;2023-01-24T12:55:39;24.00;20.00;16.00
69746;PMS7003;57018;50.278;19.134;2023-01-24T12:58:16;22.00;16.00;13.00
69746;PMS7003;57018;50.278;19.134;2023-01-24T13:06:27;28.00;25.50;15.50
69746;PMS7003;57018;50.278;19.134;2023-01-24T13:09:09;28.00;26.50;18.50
69746;PMS7003;57018;50.278;19.134;2023-01-24T13:11:49;39.00;31.00;19.00
69746;PMS7003;57018;50.278;19.134;2023-01-24T13:14:21;22.50;22.50;15.50
69746;PMS7003;57018;50.278;19.134;2023-01-24T13:20:07;30.00;24.00;15.00
69746;PMS7003;57018;50.278;19.134;2023-01-24T13:23:06;34.33;29.33;17.00
69746;PMS7003;57018;50.278;19.134;2023-01-24T13:26:02;26.50;25.00;16.00
69746;PMS7003;57018;50.278;19.134;2023-01-24T13:28:42;13.00;9.50;3.00
69746;PMS7003;57018;50.278;19.134;2023-01-24T13:31:22;29.00;26.00;17.00
69746;PMS7003;57018;50.278;19.134;2023-01-24T13:33:56;40.00;36.00;20.00
69746;PMS7003;57018;50.278;19.134;2023-01-24T13:36:32;33.00;28.00;18.50
69746;PMS7003;57018;50.278;19.134;2023-01-24T13:39:06;31.50;26.00;10.00
69746;PMS7003;57018;50.278;19.134;2023-01-24T13:42:02;32.00;26.00;17.00
69746;PMS7003;57018;50.278;19.134;2023-01-24T13:44:47;34.00;28.00;18.00
69746;PMS7003;57018;50.278;19.134;2023-01-24T13:47:25;33.00;28.00;22.00
69746;PMS7003;57018;50.278;19.134;2023-01-24T13:52:49;39.00;31.00;19.00
69746;PMS7003;57018;50.278;19.134;2023-01-24T13:58:26;32.00;29.00;17.00
69746;PMS7003;57018;50.278;19.134;2023-01-24T14:01:03;29.00;27.00;18.00
69746;PMS7003;57018;50.278;19.134;2023-01-24T14:03:52;19.00;19.00;11.50
69746;PMS7003;57018;50.278;19.134;2023-01-24T14:06:25;23.50;20.00;14.00
69746;PMS7003;57018;50.278;19.134;2023-01-24T14:09:16;28.00;24.00;15.00
69746;PMS7003;57018;50.278;19.134;2023-01-24T14:11:53;28.00;23.00;14.00
69746;PMS7003;57018;50.278;19.134;2023-01-24T14:14:32;19.50;17.00;11.50
69746;PMS7003;57018;50.278;19.134;2023-01-24T14:17:26;22.50;21.00;14.00
69746;PMS7003;57018;50.278;19.134;2023-01-24T14:20:21;20.00;18.00;13.00
69746;PMS7003;57018;50.278;19.134;2023-01-24T14:22:58;20.00;17.00;10.00
69746;PMS7003;57018;50.278;19.134;2023-01-24T14:25:35;17.50;15.50;9.50
69746;PMS7003;57018;50.278;19.134;2023-01-24T14:28:15;17.00;17.00;11.00
69746;PMS7003;57018;50.278;19.134;2023-01-24T14:30:50;21.00;19.00;11.00
69746;PMS7003;57018;50.278;19.134;2023-01-24T14:33:28;20.50;18.00;11.00
69746;PMS7003;57018;50.278;19.134;2023-01-24T14:36:04;23.00;19.00;9.00
69746;PMS7003;57018;50.278;19.134;2023-01-24T14:38:40;21.00;19.00;13.00
69746;PMS7003;57018;50.278;19.134;2023-01-24T14:41:14;30.00;24.33;17.00
69746;PMS7003;57018;50.278;19.134;2023-01-24T14:43:49;30.00;22.00;14.00
69746;PMS7003;57018;50.278;19.134;2023-01-24T14:46:21;33.00;27.00;17.00
69746;PMS7003;57018;50.278;19.134;2023-01-24T14:48:51;35.50;30.50;19.50
69746;PMS7003;57018;50.278;19.134;2023-01-24T14:51:22;29.00;27.00;15.00
69746;PMS7003;57018;50.278;19.134;2023-01-24T14:53:53;33.00;28.00;15.00
69746;PMS7003;57018;50.278;19.134;2023-01-24T14:56:23;33.00;29.00;15.00